createdAt,value
2022-09-13T00:00:17.079Z,26.76
2022-09-13T00:00:41.356Z,26.76
2022-09-13T00:01:04.256Z,26.76
2022-09-13T00:01:26.923Z,26.78
2022-09-13T00:01:48.651Z,26.77
2022-09-13T00:02:10.292Z,26.75
2022-09-13T00:02:32.496Z,26.73
2022-09-13T00:02:54.163Z,26.74
2022-09-13T00:03:18.911Z,26.72
2022-09-13T00:03:40.583Z,26.73
2022-09-13T00:04:02.619Z,26.73
2022-09-13T00:04:24.230Z,26.73
2022-09-13T00:04:46.746Z,26.69
2022-09-13T00:05:09.302Z,26.71
2022-09-13T00:05:32.363Z,26.71
2022-09-13T00:05:54.019Z,26.71
2022-09-13T00:06:18.828Z,26.73
2022-09-13T00:06:40.399Z,26.71
2022-09-13T00:07:02.002Z,26.69
2022-09-13T00:07:23.636Z,26.70
2022-09-13T00:07:45.224Z,26.69
2022-09-13T00:08:08.544Z,26.68
2022-09-13T00:08:30.115Z,26.67
2022-09-13T00:08:53.113Z,26.66
2022-09-13T00:09:14.688Z,26.64
2022-09-13T00:09:37.881Z,26.65
2022-09-13T00:09:59.446Z,26.68
2022-09-13T00:10:21.492Z,26.66
2022-09-13T00:10:44.565Z,26.68
2022-09-13T00:11:07.982Z,26.65
2022-09-13T00:11:31.215Z,26.66
2022-09-13T00:11:52.777Z,26.66
2022-09-13T00:12:15.352Z,26.68
2022-09-13T00:12:37.879Z,26.68
2022-09-13T00:12:59.501Z,26.65
2022-09-13T00:13:21.107Z,26.65
2022-09-13T00:13:42.805Z,26.65
2022-09-13T00:14:05.479Z,26.65
2022-09-13T00:14:27.053Z,26.65
2022-09-13T00:14:48.627Z,26.65
2022-09-13T00:15:11.759Z,26.64
2022-09-13T00:15:34.314Z,26.63
2022-09-13T00:15:55.947Z,26.63
2022-09-13T00:16:19.974Z,26.64
2022-09-13T00:16:41.648Z,26.65
2022-09-13T00:17:04.264Z,26.66
2022-09-13T00:17:26.767Z,26.64
2022-09-13T00:17:48.532Z,26.64
2022-09-13T00:18:10.118Z,26.62
2022-09-13T00:18:33.688Z,26.62
2022-09-13T00:18:56.433Z,26.63
2022-09-13T00:19:18.141Z,26.63
2022-09-13T00:19:39.707Z,26.63
2022-09-13T00:20:01.586Z,26.63
2022-09-13T00:20:23.273Z,26.64
2022-09-13T00:20:45.851Z,26.64
2022-09-13T00:21:09.613Z,26.62
2022-09-13T00:21:32.343Z,26.56
2022-09-13T00:21:53.926Z,26.52
2022-09-13T00:22:15.498Z,26.54
2022-09-13T00:22:37.353Z,26.53
2022-09-13T00:22:59.017Z,26.53
2022-09-13T00:23:21.495Z,26.52
2022-09-13T00:23:44.725Z,26.50
2022-09-13T00:24:06.544Z,26.50
2022-09-13T00:24:28.153Z,26.48
2022-09-13T00:24:50.680Z,26.51
2022-09-13T00:25:12.383Z,26.51
2022-09-13T00:25:34.166Z,26.49
2022-09-13T00:26:03.694Z,26.48
2022-09-13T00:26:28.095Z,26.51
2022-09-13T00:26:49.687Z,26.52
2022-09-13T00:27:12.868Z,26.51
2022-09-13T00:27:35.852Z,26.51
2022-09-13T00:27:57.428Z,26.52
2022-09-13T00:28:19.994Z,26.51
2022-09-13T00:28:42.356Z,26.48
2022-09-13T00:29:03.955Z,26.49
2022-09-13T00:29:26.627Z,26.51
2022-09-13T00:29:48.228Z,26.50
2022-09-13T00:30:11.104Z,26.50
2022-09-13T00:30:33.421Z,26.52
2022-09-13T00:30:55.061Z,26.51
2022-09-13T00:31:18.172Z,26.48
2022-09-13T00:31:39.954Z,26.49
2022-09-13T00:32:01.976Z,26.49
2022-09-13T00:32:23.624Z,26.51
2022-09-13T00:32:46.203Z,26.52
2022-09-13T00:33:07.803Z,26.49
2022-09-13T00:33:29.360Z,26.47
2022-09-13T00:33:52.300Z,26.40
2022-09-13T00:34:13.853Z,26.38
2022-09-13T00:34:36.527Z,26.39
2022-09-13T00:34:58.136Z,26.41
2022-09-13T00:35:19.742Z,26.35
2022-09-13T00:35:41.332Z,26.36
2022-09-13T00:36:06.978Z,26.37
2022-09-13T00:36:29.932Z,26.38
2022-09-13T00:36:51.509Z,26.39
2022-09-13T00:37:13.100Z,26.37
2022-09-13T00:37:34.687Z,26.37
2022-09-13T00:37:56.220Z,26.39
2022-09-13T00:38:18.768Z,26.40
2022-09-13T00:38:41.381Z,26.37
2022-09-13T00:39:03.248Z,26.43
2022-09-13T00:39:24.872Z,26.45
2022-09-13T00:39:49.742Z,26.41
2022-09-13T00:40:11.945Z,26.44
2022-09-13T00:40:37.601Z,26.43
2022-09-13T00:41:00.163Z,26.43
2022-09-13T00:41:22.230Z,26.44
2022-09-13T00:41:43.836Z,26.47
2022-09-13T00:42:05.484Z,26.47
2022-09-13T00:42:29.568Z,26.47
2022-09-13T00:42:51.125Z,26.46
2022-09-13T00:43:17.896Z,26.42
2022-09-13T00:43:46.321Z,26.44
2022-09-13T00:44:42.449Z,26.47
2022-09-13T00:45:15.825Z,26.47
2022-09-13T00:45:39.041Z,26.46
2022-09-13T00:46:01.971Z,26.46
2022-09-13T00:46:32.514Z,26.45
2022-09-13T00:47:43.519Z,26.43
2022-09-13T00:48:07.981Z,26.43
2022-09-13T00:48:29.652Z,26.42
2022-09-13T00:48:57.035Z,26.43
2022-09-13T00:49:25.074Z,26.42
2022-09-13T00:49:50.748Z,26.44
2022-09-13T00:50:18.070Z,26.42
2022-09-13T00:50:43.617Z,26.42
2022-09-13T00:51:10.089Z,26.39
2022-09-13T00:51:32.006Z,26.37
2022-09-13T00:52:00.066Z,26.40
2022-09-13T00:52:24.090Z,26.42
2022-09-13T00:52:53.462Z,26.43
2022-09-13T00:53:19.493Z,26.42
2022-09-13T00:53:47.581Z,26.43
2022-09-13T00:54:10.809Z,26.43
2022-09-13T00:54:39.631Z,26.42
2022-09-13T00:55:04.312Z,26.43
2022-09-13T00:55:33.394Z,26.43
2022-09-13T00:55:58.589Z,26.41
2022-09-13T00:56:25.078Z,26.42
2022-09-13T00:56:50.783Z,26.41
2022-09-13T00:57:16.381Z,26.41
2022-09-13T00:57:39.316Z,26.38
2022-09-13T00:58:05.956Z,26.40
2022-09-13T00:58:32.728Z,26.34
2022-09-13T00:58:58.939Z,26.36
2022-09-13T00:59:23.881Z,26.30
2022-09-13T00:59:51.529Z,26.30
2022-09-13T01:00:17.489Z,26.27
2022-09-13T01:00:40.366Z,26.29
2022-09-13T01:01:05.329Z,26.25
2022-09-13T01:01:34.244Z,26.27
2022-09-13T01:01:57.115Z,26.29
2022-09-13T01:02:19.255Z,26.31
2022-09-13T01:02:48.588Z,26.30
2022-09-13T01:03:13.568Z,26.31
2022-09-13T01:03:36.758Z,26.24
2022-09-13T01:04:01.283Z,26.30
2022-09-13T01:04:26.383Z,26.29
2022-09-13T01:04:48.029Z,26.31
2022-09-13T01:05:10.856Z,26.32
2022-09-13T01:05:36.841Z,26.26
2022-09-13T01:06:04.545Z,26.24
2022-09-13T01:06:29.382Z,26.26
2022-09-13T01:06:54.669Z,26.26
2022-09-13T01:07:18.448Z,26.24
2022-09-13T01:07:41.787Z,26.27
2022-09-13T01:08:10.142Z,26.28
2022-09-13T01:08:32.953Z,26.29
2022-09-13T01:08:54.821Z,26.30
2022-09-13T01:09:17.600Z,26.31
2022-09-13T01:09:44.070Z,26.32
2022-09-13T01:10:07.996Z,26.28
2022-09-13T01:10:31.627Z,26.32
2022-09-13T01:10:58.200Z,26.31
2022-09-13T01:11:27.767Z,26.32
2022-09-13T01:11:55.586Z,26.31
2022-09-13T01:12:28.271Z,26.31
2022-09-13T01:12:56.871Z,26.30
2022-09-13T01:13:20.949Z,26.24
2022-09-13T01:13:44.064Z,26.29
2022-09-13T01:14:06.904Z,26.32
2022-09-13T01:14:29.656Z,26.26
2022-09-13T01:14:52.449Z,26.27
2022-09-13T01:15:14.004Z,26.18
2022-09-13T01:15:36.562Z,26.20
2022-09-13T01:15:58.966Z,26.22
2022-09-13T01:16:20.870Z,26.18
2022-09-13T01:16:47.197Z,26.22
2022-09-13T01:17:10.826Z,26.22
2022-09-13T01:17:33.901Z,26.20
2022-09-13T01:17:56.084Z,26.12
2022-09-13T01:18:18.402Z,26.18
2022-09-13T01:18:40.977Z,26.16
2022-09-13T01:19:04.387Z,26.14
2022-09-13T01:19:26.086Z,26.12
2022-09-13T01:19:47.756Z,26.10
2022-09-13T01:20:11.352Z,26.16
2022-09-13T01:20:44.076Z,26.15
2022-09-13T01:21:34.506Z,26.13
2022-09-13T01:22:21.768Z,26.09
2022-09-13T01:23:28.985Z,26.09
2022-09-13T01:24:31.781Z,26.03
2022-09-13T01:25:15.672Z,25.99
2022-09-13T01:26:17.567Z,25.99
2022-09-13T01:27:18.253Z,25.84
2022-09-13T01:28:05.415Z,25.93
2022-09-13T01:28:49.107Z,25.93
2022-09-13T01:29:44.491Z,25.95
2022-09-13T01:30:25.151Z,25.97
2022-09-13T01:30:53.165Z,25.98
2022-09-13T01:31:28.446Z,25.98
2022-09-13T01:31:57.798Z,25.88
2022-09-13T01:32:30.497Z,25.93
2022-09-13T01:33:27.438Z,25.94
2022-09-13T01:34:01.409Z,25.82
2022-09-13T01:34:35.752Z,25.80
2022-09-13T01:35:05.508Z,25.80
2022-09-13T01:35:41.142Z,25.89
2022-09-13T01:36:32.730Z,25.89
2022-09-13T01:37:17.956Z,25.95
2022-09-13T01:37:52.668Z,25.93
2022-09-13T01:38:29.606Z,25.96
2022-09-13T01:38:59.464Z,25.93
2022-09-13T01:39:35.249Z,25.94
2022-09-13T01:40:05.522Z,25.94
2022-09-13T01:40:43.958Z,25.94
2022-09-13T01:41:15.585Z,25.76
2022-09-13T01:42:00.172Z,25.74
2022-09-13T01:42:34.345Z,25.71
2022-09-13T01:43:11.741Z,25.53
2022-09-13T01:43:43.795Z,25.65
2022-09-13T01:44:13.925Z,25.68
2022-09-13T01:44:57.572Z,25.74
2022-09-13T01:45:33.261Z,25.75
2022-09-13T01:46:04.634Z,25.78
2022-09-13T01:46:30.823Z,25.78
2022-09-13T01:47:14.126Z,25.77
2022-09-13T01:47:45.891Z,25.77
2022-09-13T01:48:15.453Z,25.80
2022-09-13T01:48:53.849Z,25.82
2022-09-13T01:49:21.711Z,25.85
2022-09-13T01:49:52.629Z,25.86
2022-09-13T01:50:22.785Z,25.87
2022-09-13T01:50:48.059Z,25.89
2022-09-13T01:51:17.835Z,25.89
2022-09-13T01:51:49.675Z,25.93
2022-09-13T01:52:20.713Z,25.88
2022-09-13T01:52:50.414Z,25.92
2022-09-13T01:53:20.726Z,25.91
2022-09-13T01:53:52.042Z,25.94
2022-09-13T01:54:20.416Z,25.92
2022-09-13T01:54:52.097Z,25.94
2022-09-13T01:55:23.661Z,25.95
2022-09-13T01:55:51.790Z,25.98
2022-09-13T01:56:21.650Z,26.01
2022-09-13T01:56:52.909Z,25.84
2022-09-13T01:57:20.872Z,25.80
2022-09-13T01:57:48.024Z,25.83
2022-09-13T01:58:20.953Z,25.82
2022-09-13T01:58:50.004Z,25.84
2022-09-13T01:59:16.419Z,25.76
2022-09-13T01:59:46.664Z,25.73
2022-09-13T02:00:14.206Z,25.75
2022-09-13T02:00:45.585Z,25.80
2022-09-13T02:01:16.542Z,25.78
2022-09-13T02:01:45.608Z,25.81
2022-09-13T02:02:13.055Z,25.80
2022-09-13T02:02:39.834Z,25.81
2022-09-13T02:03:07.088Z,25.79
2022-09-13T02:03:34.471Z,25.76
2022-09-13T02:04:00.639Z,25.73
2022-09-13T02:04:27.153Z,25.69
2022-09-13T02:04:54.189Z,25.71
2022-09-13T02:05:21.247Z,25.72
2022-09-13T02:05:47.430Z,25.72
2022-09-13T02:06:13.808Z,25.75
2022-09-13T02:06:41.480Z,25.78
2022-09-13T02:07:09.136Z,25.79
2022-09-13T02:07:36.658Z,25.72
2022-09-13T02:08:04.534Z,25.72
2022-09-13T02:08:35.074Z,25.75
2022-09-13T02:09:00.972Z,25.77
2022-09-13T02:09:26.632Z,25.74
2022-09-13T02:09:52.699Z,25.78
2022-09-13T02:10:24.215Z,25.78
2022-09-13T02:10:49.509Z,25.78
2022-09-13T02:11:13.204Z,25.81
2022-09-13T02:11:37.812Z,25.82
2022-09-13T02:12:06.335Z,25.84
2022-09-13T02:12:31.911Z,25.82
2022-09-13T02:12:55.093Z,25.80
2022-09-13T02:13:21.644Z,25.79
2022-09-13T02:13:49.440Z,25.74
2022-09-13T02:14:15.234Z,25.74
2022-09-13T02:14:40.035Z,25.76
2022-09-13T02:15:09.726Z,25.77
2022-09-13T02:15:36.850Z,25.72
2022-09-13T02:16:08.324Z,25.74
2022-09-13T02:16:34.276Z,25.76
2022-09-13T02:17:01.556Z,25.76
2022-09-13T02:17:26.044Z,25.75
2022-09-13T02:17:53.458Z,25.74
2022-09-13T02:18:19.892Z,25.73
2022-09-13T02:18:47.861Z,25.72
2022-09-13T02:19:14.989Z,25.65
2022-09-13T02:19:40.557Z,25.68
2022-09-13T02:20:06.154Z,25.71
2022-09-13T02:20:31.454Z,25.73
2022-09-13T02:20:59.329Z,25.73
2022-09-13T02:21:27.016Z,25.73
2022-09-13T02:21:53.537Z,25.73
2022-09-13T02:22:19.904Z,25.73
2022-09-13T02:22:49.298Z,25.74
2022-09-13T02:23:15.710Z,25.75
2022-09-13T02:23:41.125Z,25.75
2022-09-13T02:24:07.126Z,25.76
2022-09-13T02:24:33.131Z,25.76
2022-09-13T02:25:00.168Z,25.74
2022-09-13T02:25:24.593Z,25.75
2022-09-13T02:25:50.561Z,25.74
2022-09-13T02:26:15.164Z,25.75
2022-09-13T02:26:39.303Z,25.77
2022-09-13T02:27:05.388Z,25.73
2022-09-13T02:27:33.156Z,25.75
2022-09-13T02:28:01.425Z,25.72
2022-09-13T02:28:28.984Z,25.72
2022-09-13T02:28:52.549Z,25.66
2022-09-13T02:29:21.049Z,25.63
2022-09-13T02:29:45.656Z,25.69
2022-09-13T02:30:10.231Z,25.71
2022-09-13T02:30:40.183Z,25.67
2022-09-13T02:31:09.026Z,25.70
2022-09-13T02:31:37.032Z,25.71
2022-09-13T02:32:03.387Z,25.72
2022-09-13T02:32:30.383Z,25.73
2022-09-13T02:32:57.258Z,25.72
2022-09-13T02:33:24.153Z,25.74
2022-09-13T02:33:51.987Z,25.67
2022-09-13T02:34:19.910Z,25.70
2022-09-13T02:34:46.296Z,25.73
2022-09-13T02:35:16.204Z,25.74
2022-09-13T02:35:43.619Z,25.76
2022-09-13T02:36:09.836Z,25.76
2022-09-13T02:36:35.580Z,25.79
2022-09-13T02:36:58.224Z,25.80
2022-09-13T02:37:20.470Z,25.79
2022-09-13T02:37:47.103Z,25.80
2022-09-13T02:38:13.901Z,25.70
2022-09-13T02:38:40.969Z,25.74
2022-09-13T02:39:06.504Z,25.74
2022-09-13T02:39:33.250Z,25.75
2022-09-13T02:39:59.717Z,25.76
2022-09-13T02:40:27.354Z,25.76
2022-09-13T02:40:57.511Z,25.75
2022-09-13T02:41:27.477Z,25.76
2022-09-13T02:41:54.291Z,25.75
2022-09-13T02:42:19.839Z,25.79
2022-09-13T02:42:45.649Z,25.73
2022-09-13T02:43:12.417Z,25.73
2022-09-13T02:43:38.272Z,25.74
2022-09-13T02:44:10.546Z,25.75
2022-09-13T02:44:37.245Z,25.76
2022-09-13T02:44:59.710Z,25.78
2022-09-13T02:45:26.777Z,25.72
2022-09-13T02:45:54.313Z,25.77
2022-09-13T02:46:26.626Z,25.78
2022-09-13T02:47:01.421Z,25.80
2022-09-13T02:47:38.972Z,25.80
2022-09-13T02:48:10.259Z,25.79
2022-09-13T02:48:41.191Z,25.79
2022-09-13T02:49:13.136Z,25.74
2022-09-13T02:49:44.800Z,25.74
2022-09-13T02:50:31.907Z,25.76
2022-09-13T02:51:00.445Z,25.78
2022-09-13T02:51:30.653Z,25.76
2022-09-13T02:51:56.260Z,25.78
2022-09-13T02:52:31.432Z,25.78
2022-09-13T02:53:02.621Z,25.78
2022-09-13T02:53:30.690Z,25.78
2022-09-13T02:54:01.808Z,25.80
2022-09-13T02:54:31.684Z,25.82
2022-09-13T02:54:57.815Z,25.84
2022-09-13T02:55:25.741Z,25.85
2022-09-13T02:55:55.072Z,25.85
2022-09-13T02:56:24.000Z,25.85
2022-09-13T02:56:53.959Z,25.84
2022-09-13T02:57:21.691Z,25.85
2022-09-13T02:57:54.171Z,25.83
2022-09-13T02:58:26.825Z,25.84
2022-09-13T02:58:56.891Z,25.85
2022-09-13T02:59:21.924Z,25.88
2022-09-13T02:59:47.025Z,25.86
2022-09-13T03:00:10.053Z,25.91
2022-09-13T03:00:31.883Z,25.90
2022-09-13T03:00:54.219Z,25.93
2022-09-13T03:01:16.049Z,25.94
2022-09-13T03:01:42.624Z,25.93
2022-09-13T03:02:08.631Z,25.95
2022-09-13T03:02:33.093Z,25.94
2022-09-13T03:02:57.556Z,25.94
2022-09-13T03:03:19.189Z,25.92
2022-09-13T03:03:41.071Z,25.94
2022-09-13T03:04:03.447Z,25.95
2022-09-13T03:04:25.600Z,25.93
2022-09-13T03:04:50.618Z,25.94
2022-09-13T03:05:12.333Z,25.93
2022-09-13T03:05:33.901Z,25.93
2022-09-13T03:05:55.885Z,25.89
2022-09-13T03:06:22.780Z,25.93
2022-09-13T03:06:45.709Z,25.91
2022-09-13T03:07:10.816Z,25.92
2022-09-13T03:07:32.407Z,25.91
2022-09-13T03:07:54.925Z,25.90
2022-09-13T03:08:18.275Z,25.89
2022-09-13T03:08:40.976Z,25.87
2022-09-13T03:09:06.013Z,25.87
2022-09-13T03:09:28.026Z,25.87
2022-09-13T03:09:54.392Z,25.88
2022-09-13T03:10:17.778Z,25.87
2022-09-13T03:10:52.082Z,25.86
2022-09-13T03:11:25.056Z,25.84
2022-09-13T03:12:00.278Z,25.84
2022-09-13T03:12:40.827Z,25.84
2022-09-13T03:13:28.578Z,25.78
2022-09-13T03:14:08.323Z,25.85
2022-09-13T03:14:44.356Z,25.85
2022-09-13T03:15:14.258Z,25.86
2022-09-13T03:15:52.836Z,25.86
2022-09-13T03:16:31.033Z,25.84
2022-09-13T03:17:13.693Z,25.85
2022-09-13T03:17:48.271Z,25.82
2022-09-13T03:18:23.823Z,25.87
2022-09-13T03:18:58.384Z,25.86
2022-09-13T03:19:37.345Z,25.88
2022-09-13T03:20:09.580Z,25.89
2022-09-13T03:20:40.966Z,25.90
2022-09-13T03:21:11.888Z,25.89
2022-09-13T03:21:52.777Z,25.91
2022-09-13T03:22:32.952Z,25.93
2022-09-13T03:23:25.277Z,25.89
2022-09-13T03:24:01.114Z,25.90
2022-09-13T03:24:28.384Z,25.91
2022-09-13T03:24:58.490Z,25.92
2022-09-13T03:25:32.014Z,25.92
2022-09-13T03:26:24.884Z,25.93
2022-09-13T03:26:59.783Z,25.94
2022-09-13T03:27:33.213Z,25.96
2022-09-13T03:28:07.547Z,25.95
2022-09-13T03:28:39.280Z,25.95
2022-09-13T03:29:11.060Z,25.95
2022-09-13T03:29:42.622Z,25.92
2022-09-13T03:30:07.514Z,25.92
2022-09-13T03:30:30.735Z,25.90
2022-09-13T03:31:02.946Z,25.88
2022-09-13T03:31:33.884Z,25.88
2022-09-13T03:32:06.499Z,25.87
2022-09-13T03:32:36.199Z,25.91
2022-09-13T03:33:04.877Z,25.92
2022-09-13T03:33:34.659Z,25.93
2022-09-13T03:33:59.042Z,25.92
2022-09-13T03:34:33.916Z,25.92
2022-09-13T03:35:04.685Z,25.92
2022-09-13T03:35:32.529Z,25.91
2022-09-13T03:35:58.471Z,25.97
2022-09-13T03:36:26.700Z,25.97
2022-09-13T03:36:55.628Z,25.95
2022-09-13T03:37:25.175Z,25.92
2022-09-13T03:37:56.787Z,25.92
2022-09-13T03:38:24.974Z,25.89
2022-09-13T03:38:55.911Z,25.92
2022-09-13T03:39:25.931Z,25.93
2022-09-13T03:39:52.756Z,25.92
2022-09-13T03:40:17.765Z,25.93
2022-09-13T03:40:43.456Z,25.96
2022-09-13T03:41:09.098Z,25.93
2022-09-13T03:41:36.876Z,25.94
2022-09-13T03:42:05.696Z,25.94
2022-09-13T03:42:32.649Z,25.95
2022-09-13T03:43:02.568Z,25.96
2022-09-13T03:43:30.571Z,25.90
2022-09-13T03:43:57.008Z,25.94
2022-09-13T03:44:21.857Z,25.96
2022-09-13T03:44:48.576Z,25.96
2022-09-13T03:45:12.295Z,25.98
2022-09-13T03:45:39.888Z,25.96
2022-09-13T03:46:06.250Z,25.96
2022-09-13T03:46:32.452Z,25.95
2022-09-13T03:46:57.599Z,25.96
2022-09-13T03:47:22.818Z,25.98
2022-09-13T03:47:48.408Z,25.94
2022-09-13T03:48:13.260Z,25.95
2022-09-13T03:48:38.050Z,25.95
2022-09-13T03:49:03.095Z,25.96
2022-09-13T03:49:27.053Z,25.95
2022-09-13T03:49:51.902Z,25.95
2022-09-13T03:50:18.660Z,25.93
2022-09-13T03:50:41.039Z,25.93
2022-09-13T03:51:02.823Z,25.93
2022-09-13T03:51:25.764Z,25.92
2022-09-13T03:51:49.902Z,25.92
2022-09-13T03:52:12.383Z,25.89
2022-09-13T03:52:34.921Z,25.91
2022-09-13T03:53:00.552Z,25.91
2022-09-13T03:53:26.190Z,25.93
2022-09-13T03:53:56.323Z,25.94
2022-09-13T03:54:21.103Z,25.96
2022-09-13T03:54:43.732Z,25.99
2022-09-13T03:55:05.797Z,25.99
2022-09-13T03:55:29.100Z,25.96
2022-09-13T03:55:50.788Z,25.98
2022-09-13T03:56:13.998Z,25.98
2022-09-13T03:56:36.685Z,25.98
2022-09-13T03:57:09.738Z,25.98
2022-09-13T03:57:31.432Z,25.97
2022-09-13T03:57:53.078Z,25.99
2022-09-13T03:58:17.645Z,26.01
2022-09-13T03:58:39.258Z,26.00
2022-09-13T03:59:00.901Z,26.00
2022-09-13T03:59:22.607Z,25.96
2022-09-13T03:59:47.732Z,25.95
2022-09-13T04:00:14.869Z,25.97
2022-09-13T04:00:36.473Z,25.89
2022-09-13T04:00:58.123Z,25.92
2022-09-13T04:01:21.803Z,25.96
2022-09-13T04:01:44.520Z,25.96
2022-09-13T04:02:07.968Z,25.96
2022-09-13T04:02:31.045Z,25.92
2022-09-13T04:02:52.672Z,25.93
2022-09-13T04:03:15.693Z,25.96
2022-09-13T04:03:37.368Z,25.98
2022-09-13T04:03:59.066Z,25.99
2022-09-13T04:04:20.613Z,25.98
2022-09-13T04:04:44.950Z,26.00
2022-09-13T04:05:07.067Z,26.01
2022-09-13T04:05:28.646Z,26.02
2022-09-13T04:05:50.272Z,26.02
2022-09-13T04:06:11.924Z,26.03
2022-09-13T04:06:34.463Z,26.02
2022-09-13T04:06:56.855Z,26.01
2022-09-13T04:07:20.525Z,25.98
2022-09-13T04:07:42.168Z,25.95
2022-09-13T04:08:06.052Z,25.95
2022-09-13T04:08:27.699Z,25.98
2022-09-13T04:08:49.378Z,25.97
2022-09-13T04:09:11.512Z,25.95
2022-09-13T04:09:33.540Z,25.98
2022-09-13T04:09:56.249Z,25.99
2022-09-13T04:10:17.864Z,25.96
2022-09-13T04:10:40.604Z,25.96
2022-09-13T04:11:02.200Z,25.98
2022-09-13T04:11:24.871Z,25.99
2022-09-13T04:11:46.417Z,25.98
2022-09-13T04:12:09.986Z,25.97
2022-09-13T04:12:31.793Z,25.98
2022-09-13T04:12:55.361Z,25.99
2022-09-13T04:13:17.076Z,26.01
2022-09-13T04:13:38.692Z,26.01
2022-09-13T04:14:00.228Z,26.01
2022-09-13T04:14:26.346Z,26.01
2022-09-13T04:14:48.063Z,26.03
2022-09-13T04:15:10.005Z,26.04
2022-09-13T04:15:31.924Z,26.05
2022-09-13T04:15:54.460Z,26.05
2022-09-13T04:16:16.115Z,26.05
2022-09-13T04:16:37.710Z,26.06
2022-09-13T04:16:59.332Z,26.06
2022-09-13T04:17:21.917Z,26.01
2022-09-13T04:17:44.839Z,26.06
2022-09-13T04:18:06.439Z,26.08
2022-09-13T04:18:28.279Z,26.04
2022-09-13T04:18:50.793Z,26.04
2022-09-13T04:19:12.490Z,26.05
2022-09-13T04:19:34.233Z,26.03
2022-09-13T04:19:55.819Z,26.04
2022-09-13T04:20:19.021Z,26.06
2022-09-13T04:20:40.628Z,26.08
2022-09-13T04:21:02.684Z,26.06
2022-09-13T04:21:24.375Z,26.06
2022-09-13T04:21:48.716Z,26.02
2022-09-13T04:22:10.312Z,25.98
2022-09-13T04:22:32.037Z,26.02
2022-09-13T04:22:55.031Z,26.03
2022-09-13T04:23:16.680Z,25.97
2022-09-13T04:23:38.574Z,26.06
2022-09-13T04:24:00.164Z,26.05
2022-09-13T04:24:26.252Z,26.04
2022-09-13T04:24:47.868Z,26.05
2022-09-13T04:25:09.947Z,26.05
2022-09-13T04:25:31.560Z,26.05
2022-09-13T04:25:54.741Z,26.04
2022-09-13T04:26:16.642Z,26.06
2022-09-13T04:26:38.954Z,26.04
2022-09-13T04:27:01.451Z,26.04
2022-09-13T04:27:24.027Z,26.03
2022-09-13T04:27:45.576Z,26.06
2022-09-13T04:28:07.128Z,26.02
2022-09-13T04:28:28.734Z,26.06
2022-09-13T04:28:52.593Z,26.05
2022-09-13T04:29:15.156Z,26.07
2022-09-13T04:29:36.708Z,26.08
2022-09-13T04:29:58.266Z,26.06
2022-09-13T04:30:19.844Z,26.08
2022-09-13T04:30:45.117Z,26.08
2022-09-13T04:31:06.720Z,26.07
2022-09-13T04:31:28.368Z,26.03
2022-09-13T04:31:51.934Z,26.05
2022-09-13T04:32:15.457Z,26.02
2022-09-13T04:32:37.005Z,26.00
2022-09-13T04:32:59.925Z,26.00
2022-09-13T04:33:21.772Z,25.99
2022-09-13T04:33:44.390Z,26.01
2022-09-13T04:34:06.606Z,26.00
2022-09-13T04:34:28.170Z,25.99
2022-09-13T04:34:49.780Z,26.02
2022-09-13T04:35:11.991Z,26.01
2022-09-13T04:35:34.516Z,25.98
2022-09-13T04:35:58.486Z,25.91
2022-09-13T04:36:20.674Z,25.88
2022-09-13T04:36:42.924Z,25.91
2022-09-13T04:37:04.664Z,25.92
2022-09-13T04:37:27.197Z,25.94
2022-09-13T04:37:48.896Z,25.98
2022-09-13T04:38:10.996Z,25.94
2022-09-13T04:38:32.710Z,25.95
2022-09-13T04:38:55.273Z,25.92
2022-09-13T04:39:16.849Z,25.91
2022-09-13T04:39:38.442Z,25.93
2022-09-13T04:40:00.048Z,25.93
2022-09-13T04:40:22.940Z,25.91
2022-09-13T04:40:44.550Z,25.92
2022-09-13T04:41:06.641Z,25.91
2022-09-13T04:41:28.780Z,25.86
2022-09-13T04:41:51.935Z,25.90
2022-09-13T04:42:14.505Z,25.94
2022-09-13T04:42:36.271Z,25.93
2022-09-13T04:42:57.832Z,25.96
2022-09-13T04:43:19.385Z,25.97
2022-09-13T04:43:41.901Z,25.95
2022-09-13T04:44:03.584Z,25.93
2022-09-13T04:44:25.403Z,25.97
2022-09-13T04:44:50.029Z,25.88
2022-09-13T04:45:12.788Z,25.87
2022-09-13T04:45:34.401Z,25.86
2022-09-13T04:45:59.925Z,25.89
2022-09-13T04:46:22.634Z,25.96
2022-09-13T04:46:48.044Z,25.96
2022-09-13T04:47:10.117Z,25.95
2022-09-13T04:47:31.719Z,25.89
2022-09-13T04:47:55.064Z,25.86
2022-09-13T04:48:18.048Z,25.81
2022-09-13T04:48:39.637Z,25.82
2022-09-13T04:49:01.256Z,25.83
2022-09-13T04:49:23.851Z,25.84
2022-09-13T04:49:45.392Z,25.80
2022-09-13T04:50:07.504Z,25.80
2022-09-13T04:50:29.452Z,25.84
2022-09-13T04:50:51.985Z,25.82
2022-09-13T04:51:14.688Z,25.80
2022-09-13T04:51:36.486Z,25.74
2022-09-13T04:51:58.032Z,25.81
2022-09-13T04:52:20.751Z,25.84
2022-09-13T04:52:42.345Z,25.83
2022-09-13T04:53:03.940Z,25.84
2022-09-13T04:53:25.663Z,25.83
2022-09-13T04:53:52.685Z,25.79
2022-09-13T04:54:16.124Z,25.83
2022-09-13T04:54:38.103Z,25.82
2022-09-13T04:55:01.590Z,25.83
2022-09-13T04:55:25.989Z,25.86
2022-09-13T04:55:47.595Z,25.86
2022-09-13T04:56:09.510Z,25.88
2022-09-13T04:56:31.143Z,25.87
2022-09-13T04:56:55.083Z,25.89
2022-09-13T04:57:16.784Z,25.92
2022-09-13T04:57:38.370Z,25.93
2022-09-13T04:57:59.996Z,25.92
2022-09-13T04:58:22.988Z,25.95
2022-09-13T04:58:44.608Z,25.95
2022-09-13T04:59:07.023Z,25.96
2022-09-13T04:59:29.559Z,25.94
2022-09-13T04:59:51.183Z,25.95
2022-09-13T05:00:13.172Z,25.97
2022-09-13T05:00:35.508Z,25.98
2022-09-13T05:01:02.227Z,25.96
2022-09-13T05:01:27.689Z,25.98
2022-09-13T05:01:49.696Z,25.97
2022-09-13T05:02:12.554Z,25.97
2022-09-13T05:02:34.475Z,25.94
2022-09-13T05:02:56.401Z,25.98
2022-09-13T05:03:19.312Z,25.99
2022-09-13T05:03:40.903Z,26.00
2022-09-13T05:04:04.164Z,26.01
2022-09-13T05:04:25.943Z,26.01
2022-09-13T05:04:47.556Z,26.00
2022-09-13T05:05:09.464Z,25.99
2022-09-13T05:05:32.478Z,25.99
2022-09-13T05:05:54.039Z,25.96
2022-09-13T05:06:17.951Z,25.97
2022-09-13T05:06:39.637Z,25.96
2022-09-13T05:07:02.228Z,25.96
2022-09-13T05:07:23.906Z,25.97
2022-09-13T05:07:45.592Z,25.98
2022-09-13T05:08:07.173Z,25.92
2022-09-13T05:08:29.775Z,25.95
2022-09-13T05:08:55.494Z,25.98
2022-09-13T05:09:17.334Z,25.98
2022-09-13T05:09:39.912Z,26.00
2022-09-13T05:10:01.529Z,26.00
2022-09-13T05:10:23.261Z,26.00
2022-09-13T05:10:46.804Z,26.02
2022-09-13T05:11:09.438Z,26.01
2022-09-13T05:11:31.429Z,26.04
2022-09-13T05:11:53.210Z,25.94
2022-09-13T05:12:15.793Z,25.99
2022-09-13T05:12:37.400Z,26.01
2022-09-13T05:12:59.001Z,26.01
2022-09-13T05:13:20.616Z,26.00
2022-09-13T05:13:43.189Z,26.01
2022-09-13T05:14:05.693Z,26.02
2022-09-13T05:14:27.382Z,26.03
2022-09-13T05:14:49.944Z,26.04
2022-09-13T05:15:12.363Z,26.04
2022-09-13T05:15:33.989Z,26.05
2022-09-13T05:15:56.828Z,26.06
2022-09-13T05:16:19.743Z,26.07
2022-09-13T05:16:41.734Z,26.09
2022-09-13T05:17:03.639Z,26.07
2022-09-13T05:17:27.264Z,26.09
2022-09-13T05:17:48.869Z,26.09
2022-09-13T05:18:10.529Z,26.10
2022-09-13T05:18:34.782Z,26.09
2022-09-13T05:18:57.960Z,26.10
2022-09-13T05:19:19.569Z,26.12
2022-09-13T05:19:41.239Z,26.13
2022-09-13T05:20:04.251Z,26.09
2022-09-13T05:20:26.924Z,26.13
2022-09-13T05:20:48.592Z,26.11
2022-09-13T05:21:10.194Z,26.12
2022-09-13T05:21:31.909Z,26.14
2022-09-13T05:21:54.570Z,26.13
2022-09-13T05:22:16.191Z,26.10
2022-09-13T05:22:38.018Z,26.12
2022-09-13T05:22:59.799Z,26.12
2022-09-13T05:23:21.620Z,26.13
2022-09-13T05:23:44.241Z,26.12
2022-09-13T05:24:06.057Z,26.11
2022-09-13T05:24:27.632Z,26.11
2022-09-13T05:24:49.366Z,26.12
2022-09-13T05:25:12.001Z,26.05
2022-09-13T05:25:33.656Z,26.10
2022-09-13T05:25:56.233Z,26.10
2022-09-13T05:26:18.672Z,26.08
2022-09-13T05:26:41.221Z,26.12
2022-09-13T05:27:02.804Z,26.11
2022-09-13T05:27:24.429Z,26.11
2022-09-13T05:27:46.047Z,26.10
2022-09-13T05:28:07.653Z,26.09
2022-09-13T05:28:32.443Z,26.11
2022-09-13T05:28:54.039Z,26.12
2022-09-13T05:29:15.679Z,26.12
2022-09-13T05:29:37.289Z,26.13
2022-09-13T05:29:58.899Z,26.13
2022-09-13T05:30:21.657Z,26.00
2022-09-13T05:30:43.268Z,25.96
2022-09-13T05:31:07.745Z,26.00
2022-09-13T05:31:31.928Z,25.96
2022-09-13T05:31:54.505Z,25.98
2022-09-13T05:32:16.071Z,25.97
2022-09-13T05:32:37.681Z,25.96